Time;durP1;ratioP1;P1;durP2;ratioP2;P2;SDS_P1;SDS_P2;PMS_P1;PMS_P2;Temp;Humidity;BMP_temperature;BMP_pressure;BME280_temperature;BME280_humidity;BME280_pressure;Samples;Min_cycle;Max_cycle;Signal;HPM_P1;HPM_P2
2024/04/07 00:00:56;;;;;;;;;;;;;;;25.46;36.75;100910.84;4146770;28;19926;-68
2024/04/07 00:02:57;;;;;;;;;;;;;;;25.47;36.76;100915.25;4146975;28;19949;-69
2024/04/07 00:05:01;;;;;;;;;;;;;;;25.47;36.68;100912.56;4147133;28;19925;-68
2024/04/07 00:07:02;;;;;;;;;;;;;;;25.48;36.90;100903.50;4146943;28;19925;-68
2024/04/07 00:09:03;;;;;;;;;;;;;;;25.50;36.91;100879.09;4146455;28;19925;-67
2024/04/07 00:11:04;;;;;;;;;;;;;;;25.50;36.69;100866.47;4146879;28;19937;-67
2024/04/07 00:13:04;;;;;;;;;;;;;;;25.51;36.71;100870.03;4146854;28;19933;-67
2024/04/07 00:15:05;;;;;;;;;;;;;;;25.51;36.71;100894.25;4146780;28;20020;-67
2024/04/07 00:17:06;;;;;;;;;;;;;;;25.51;36.85;100910.41;4146637;28;19929;-68
2024/04/07 00:19:07;;;;;;;;;;;;;;;25.50;36.80;100922.19;4146789;28;20378;-68
2024/04/07 00:21:08;;;;;;;;;;;;;;;25.50;36.74;100923.00;4146943;28;19925;-68
2024/04/07 00:23:09;;;;;;;;;;;;;;;25.49;36.58;100923.16;4146376;28;19926;-67
2024/04/07 00:25:10;;;;;;;;;;;;;;;25.48;37.00;100914.25;4146507;28;19980;-68
2024/04/07 00:27:11;;;;;;;;;;;;;;;25.48;36.98;100926.84;4146753;28;19936;-67
2024/04/07 00:29:12;;;;;;;;;;;;;;;25.46;36.62;100943.16;4146640;28;19933;-67
2024/04/07 00:31:13;;;;;;;;;;;;;;;25.44;36.70;100937.06;4146565;28;19925;-67
2024/04/07 00:33:15;;;;;;;;;;;;;;;25.44;36.76;100928.16;4146551;28;20346;-67
2024/04/07 00:35:15;;;;;;;;;;;;;;;25.43;36.71;100935.41;4146730;28;19932;-68
2024/04/07 00:37:17;;;;;;;;;;;;;;;25.43;36.77;100948.00;4146020;28;20012;-68
2024/04/07 00:39:17;;;;;;;;;;;;;;;25.44;36.98;100933.53;4146656;28;19925;-68
2024/04/07 00:41:18;;;;;;;;;;;;;;;25.44;36.75;100934.38;4146681;28;19965;-67
2024/04/07 00:43:19;;;;;;;;;;;;;;;25.44;37.03;100925.47;4146355;28;19926;-68
2024/04/07 00:45:20;;;;;;;;;;;;;;;25.44;36.49;100930.84;4146535;28;19925;-67
2024/04/07 00:47:20;;;;;;;;;;;;;;;25.45;36.66;100925.31;4148387;28;19925;-68
2024/04/07 00:49:21;;;;;;;;;;;;;;;25.46;36.57;100920.78;4150008;28;19926;-67
2024/04/07 00:51:22;;;;;;;;;;;;;;;25.46;36.54;100928.88;4149578;28;20322;-68
2024/04/07 00:53:23;;;;;;;;;;;;;;;25.46;36.52;100928.88;4149905;28;20005;-66
2024/04/07 00:55:24;;;;;;;;;;;;;;;25.44;36.53;100929.00;4149680;28;19961;-67
2024/04/07 00:57:27;;;;;;;;;;;;;;;25.43;36.48;100923.75;4149834;28;19987;-67
2024/04/07 00:59:28;;;;;;;;;;;;;;;25.41;36.48;100906.91;4149475;28;19949;-67
2024/04/07 01:01:29;;;;;;;;;;;;;;;25.39;36.87;100909.75;4149874;28;19925;-67
2024/04/07 01:03:29;;;;;;;;;;;;;;;25.37;36.73;100892.84;4133410;28;19981;-68
2024/04/07 01:05:39;;;;;;;;;;;;;;;25.36;36.52;100896.56;4149751;28;19936;-68
2024/04/07 01:07:40;;;;;;;;;;;;;;;25.34;36.50;100896.69;4149815;28;19932;-67
2024/04/07 01:09:41;;;;;;;;;;;;;;;25.36;36.76;100883.94;4149424;28;20271;-67
2024/04/07 01:11:41;;;;;;;;;;;;;;;25.36;36.87;100889.31;4149486;28;19925;-66
2024/04/07 01:13:42;;;;;;;;;;;;;;;25.38;36.85;100883.81;4149686;28;20474;-67
2024/04/07 01:15:43;;;;;;;;;;;;;;;25.39;36.37;100892.75;4149604;28;19925;-68
2024/04/07 01:17:44;;;;;;;;;;;;;;;25.39;36.45;100898.97;4149666;28;20003;-67
2024/04/07 01:19:45;;;;;;;;;;;;;;;25.41;36.69;100902.38;4149447;28;19934;-66
2024/04/07 01:21:46;;;;;;;;;;;;;;;25.42;36.77;100897.81;4149103;28;20352;-68
2024/04/07 01:23:46;;;;;;;;;;;;;;;25.41;36.80;100880.84;4149700;28;19965;-68
2024/04/07 01:25:47;;;;;;;;;;;;;;;25.40;36.49;100872.91;4149374;28;20410;-67
2024/04/07 01:27:50;;;;;;;;;;;;;;;25.38;36.43;100872.22;4149409;28;19972;-67
2024/04/07 01:29:51;;;;;;;;;;;;;;;25.36;36.78;100878.56;4149478;28;19925;-67
2024/04/07 01:31:52;;;;;;;;;;;;;;;25.38;36.45;100874.91;4149529;28;19932;-67
2024/04/07 01:33:53;;;;;;;;;;;;;;;25.35;36.39;100868.78;4149332;28;19926;-67
2024/04/07 01:35:54;;;;;;;;;;;;;;;25.34;36.54;100885.91;4149131;28;19991;-67
2024/04/07 01:37:55;;;;;;;;;;;;;;;25.33;36.49;100886.91;4149252;28;19930;-67
2024/04/07 01:40:01;;;;;;;;;;;;;;;25.32;36.50;100874.47;4149258;28;20411;-67
2024/04/07 01:42:01;;;;;;;;;;;;;;;25.32;36.41;100873.59;4149307;28;20331;-67
2024/04/07 01:44:02;;;;;;;;;;;;;;;25.31;36.69;100883.53;4132714;28;19932;-66
2024/04/07 01:46:03;;;;;;;;;;;;;;;25.33;36.50;100878.00;4149004;28;19960;-66
2024/04/07 01:48:04;;;;;;;;;;;;;;;25.33;36.38;100870.75;4148999;28;19932;-65
2024/04/07 01:50:05;;;;;;;;;;;;;;;25.34;36.51;100871.63;4148930;28;19929;-66
2024/04/07 01:52:05;;;;;;;;;;;;;;;25.34;36.31;100869.75;4148852;28;20070;-66
2024/04/07 01:54:06;;;;;;;;;;;;;;;25.35;36.28;100878.72;4148898;28;19971;-66
2024/04/07 01:56:06;;;;;;;;;;;;;;;25.34;36.57;100880.53;4148985;28;20442;-67
2024/04/07 01:58:07;;;;;;;;;;;;;;;25.35;36.34;100894.84;4147629;28;20409;-66
2024/04/07 02:00:10;;;;;;;;;;;;;;;25.33;36.32;100902.22;4132593;28;19933;-65
2024/04/07 02:02:11;;;;;;;;;;;;;;;25.32;36.35;100904.09;4148945;28;19926;-67
2024/04/07 02:04:11;;;;;;;;;;;;;;;25.31;36.42;100902.38;4148508;28;19926;-66
2024/04/07 02:06:12;;;;;;;;;;;;;;;25.29;36.40;100915.13;4147836;28;19985;-66
2024/04/07 02:08:13;;;;;;;;;;;;;;;25.27;36.44;100925.19;4148744;28;20020;-66
2024/04/07 02:10:14;;;;;;;;;;;;;;;25.27;36.37;100918.97;4148631;28;19932;-65
2024/04/07 02:12:14;;;;;;;;;;;;;;;25.27;36.82;100919.81;4148695;28;19961;-66
2024/04/07 02:14:15;;;;;;;;;;;;;;;25.26;36.41;100919.97;4148805;28;20008;-66
2024/04/07 02:16:16;;;;;;;;;;;;;;;25.27;36.43;100909.03;4132435;28;19926;-67
2024/04/07 02:18:16;;;;;;;;;;;;;;;25.28;36.63;100913.44;4148288;28;20418;-67
2024/04/07 02:20:18;;;;;;;;;;;;;;;25.29;36.37;100914.28;4148685;28;19925;-66
2024/04/07 02:22:18;;;;;;;;;;;;;;;25.30;36.60;100937.50;4132428;28;19929;-67
2024/04/07 02:24:19;;;;;;;;;;;;;;;25.29;36.37;100941.22;4132162;28;19933;-67
2024/04/07 02:26:21;;;;;;;;;;;;;;;25.30;36.39;100932.97;4132195;28;19926;-67
2024/04/07 02:28:22;;;;;;;;;;;;;;;25.31;36.36;100936.50;4132260;28;19977;-67
2024/04/07 02:30:22;;;;;;;;;;;;;;;25.30;36.33;100937.50;4132148;28;20381;-67
2024/04/07 02:32:23;;;;;;;;;;;;;;;25.29;36.31;100944.75;4115966;28;19926;-67
2024/04/07 02:34:24;;;;;;;;;;;;;;;25.28;36.33;100945.72;4131929;28;19926;-68
2024/04/07 02:36:24;;;;;;;;;;;;;;;25.27;36.32;100941.34;4131947;28;19937;-67
2024/04/07 02:38:25;;;;;;;;;;;;;;;25.25;36.23;100945.16;4132404;28;19978;-67
2024/04/07 02:40:27;;;;;;;;;;;;;;;25.23;36.25;100942.63;4115974;28;19933;-67
2024/04/07 02:42:27;;;;;;;;;;;;;;;25.23;36.70;100947.19;4132064;28;19960;-67
2024/04/07 02:49:06;;;;;;;;;;;;;;;25.22;36.57;100945.47;4132008;28;19937;-67
2024/04/07 02:51:06;;;;;;;;;;;;;;;25.22;36.50;100938.25;4131909;28;20400;-67
2024/04/07 02:53:07;;;;;;;;;;;;;;;25.23;36.63;100931.03;4131633;28;19950;-67
2024/04/07 02:55:08;;;;;;;;;;;;;;;25.24;36.54;100946.16;4131787;28;19926;-66
2024/04/07 02:57:09;;;;;;;;;;;;;;;25.24;36.57;100930.00;4131697;28;19925;-66
2024/04/07 02:59:10;;;;;;;;;;;;;;;25.24;36.75;100938.09;4131749;28;19930;-67
2024/04/07 03:01:10;;;;;;;;;;;;;;;25.24;36.80;100938.94;4131748;28;20327;-66
2024/04/07 03:03:11;;;;;;;;;;;;;;;25.24;36.87;100948.84;4131284;28;20423;-66
2024/04/07 03:05:12;;;;;;;;;;;;;;;25.22;36.70;100957.09;4131664;28;19968;-67
2024/04/07 03:07:13;;;;;;;;;;;;;;;25.22;36.66;100957.09;4131619;28;19925;-66
2024/04/07 03:09:14;;;;;;;;;;;;;;;25.20;36.80;100946.47;4130784;28;20331;-66
2024/04/07 03:11:15;;;;;;;;;;;;;;;25.19;37.07;100952.84;4131542;28;19926;-67
2024/04/07 03:13:15;;;;;;;;;;;;;;;25.17;36.96;100956.69;4131337;28;20494;-68
2024/04/07 03:15:16;;;;;;;;;;;;;;;25.17;36.90;100959.38;4131668;28;19980;-68
2024/04/07 03:17:17;;;;;;;;;;;;;;;25.17;36.89;100965.59;4131347;28;19925;-67
2024/04/07 03:19:17;;;;;;;;;;;;;;;25.18;36.84;100958.38;4131406;28;20392;-68
2024/04/07 03:21:18;;;;;;;;;;;;;;;25.18;36.87;100967.28;4131714;28;19926;-68
2024/04/07 03:23:19;;;;;;;;;;;;;;;25.19;37.10;100976.22;4143755;28;20023;-67
2024/04/07 03:25:19;;;;;;;;;;;;;;;25.19;36.92;100973.53;4147474;28;20376;-68
2024/04/07 03:27:20;;;;;;;;;;;;;;;25.20;37.19;100969.81;4147749;28;19925;-68
2024/04/07 03:29:20;;;;;;;;;;;;;;;25.19;36.91;100966.28;4147675;28;19960;-67
2024/04/07 03:31:21;;;;;;;;;;;;;;;25.20;36.86;100965.31;4131023;28;19951;-68
2024/04/07 03:33:21;;;;;;;;;;;;;;;25.18;37.06;100964.59;4163842;28;20306;-68
2024/04/07 03:35:22;;;;;;;;;;;;;;;25.19;37.01;100963.59;4147300;28;19995;-67
2024/04/07 03:37:23;;;;;;;;;;;;;;;25.18;36.92;100975.38;4147624;28;19963;-68
2024/04/07 03:39:23;;;;;;;;;;;;;;;25.17;36.90;100970.97;4147622;28;19973;-68
2024/04/07 03:41:24;;;;;;;;;;;;;;;25.15;36.89;100962.22;4147335;28;19925;-68
2024/04/07 03:43:25;;;;;;;;;;;;;;;25.13;36.96;100961.50;4147547;28;19936;-68
2024/04/07 03:45:26;;;;;;;;;;;;;;;25.12;37.02;100964.34;4147073;28;19925;-68
2024/04/07 03:47:26;;;;;;;;;;;;;;;25.11;36.99;100985.00;4147158;28;19925;-67
2024/04/07 03:49:27;;;;;;;;;;;;;;;25.11;37.02;100982.31;4131035;28;19932;-67
2024/04/07 03:51:27;;;;;;;;;;;;;;;25.12;37.04;100991.25;4147370;28;19968;-68
2024/04/07 03:53:28;;;;;;;;;;;;;;;25.12;36.95;100981.31;4131058;28;19930;-67
2024/04/07 03:55:29;;;;;;;;;;;;;;;25.14;37.08;100983.88;4147497;28;19926;-68
2024/04/07 03:57:29;;;;;;;;;;;;;;;25.14;37.26;100979.34;4147192;28;19956;-68
2024/04/07 03:59:30;;;;;;;;;;;;;;;25.16;37.00;100989.97;4130894;28;20346;-67
2024/04/07 04:01:31;;;;;;;;;;;;;;;25.16;37.15;100984.56;4146913;28;19975;-68
2024/04/07 04:03:31;;;;;;;;;;;;;;;25.15;36.89;100997.19;4147110;28;19925;-67
2024/04/07 04:05:32;;;;;;;;;;;;;;;25.15;37.06;101004.41;4147021;28;19936;-68
2024/04/07 04:07:33;;;;;;;;;;;;;;;25.15;36.95;101007.09;4146919;28;19925;-67
2024/04/07 04:09:33;;;;;;;;;;;;;;;25.14;37.04;101011.66;4146890;28;19977;-69
2024/04/07 04:11:34;;;;;;;;;;;;;;;25.12;37.32;101007.41;4130697;28;19961;-68
2024/04/07 04:13:35;;;;;;;;;;;;;;;25.11;36.98;101013.78;4146741;28;20007;-68
2024/04/07 04:15:36;;;;;;;;;;;;;;;25.11;37.04;101024.53;4146787;28;19929;-68
2024/04/07 04:17:36;;;;;;;;;;;;;;;25.09;37.15;101019.28;4146862;28;19933;-68
2024/04/07 04:19:37;;;;;;;;;;;;;;;25.09;37.08;101029.19;4147202;28;20410;-68
2024/04/07 04:21:40;;;;;;;;;;;;;;;25.07;37.01;101017.72;4146193;28;20377;-67
2024/04/07 04:23:40;;;;;;;;;;;;;;;25.08;37.06;101016.72;4146609;28;19926;-68
2024/04/07 04:25:41;;;;;;;;;;;;;;;25.10;37.04;101020.97;4146730;28;19925;-68
2024/04/07 04:27:41;;;;;;;;;;;;;;;25.11;37.43;101024.53;4130609;28;19926;-68
2024/04/07 04:29:42;;;;;;;;;;;;;;;25.13;37.12;101027.91;4130043;28;19976;-68
2024/04/07 04:31:42;;;;;;;;;;;;;;;25.12;37.05;101019.00;4130407;28;19930;-67
2024/04/07 04:33:43;;;;;;;;;;;;;;;25.13;37.37;101025.22;4130496;28;20538;-67
2024/04/07 04:35:43;;;;;;;;;;;;;;;25.13;37.01;101027.91;4130298;28;19930;-68
2024/04/07 04:37:44;;;;;;;;;;;;;;;25.11;37.45;101024.53;4130548;28;19929;-66
2024/04/07 04:39:45;;;;;;;;;;;;;;;25.12;37.23;101026.25;4130268;28;19933;-68
2024/04/07 04:41:45;;;;;;;;;;;;;;;25.10;37.09;101017.44;4130163;28;19929;-68
2024/04/07 04:43:46;;;;;;;;;;;;;;;25.09;37.42;101024.66;4130265;28;19926;-68
2024/04/07 04:46:06;;;;;;;;;;;;;;;25.08;37.18;101031.06;4130394;28;19941;-67
2024/04/07 04:48:07;;;;;;;;;;;;;;;25.07;37.16;101039.25;4130348;28;19992;-68
2024/04/07 04:50:10;;;;;;;;;;;;;;;25.05;37.46;101044.78;4130457;28;19975;-67
2024/04/07 04:52:12;;;;;;;;;;;;;;;25.05;37.22;101047.47;4130580;28;19972;-68
2024/04/07 04:54:12;;;;;;;;;;;;;;;25.05;37.48;101031.31;4130479;28;19925;-67
2024/04/07 04:56:13;;;;;;;;;;;;;;;25.06;37.34;101032.19;4130290;28;19933;-68
2024/04/07 04:58:13;;;;;;;;;;;;;;;25.07;37.31;101036.56;4129913;28;19925;-67
2024/04/07 05:00:14;;;;;;;;;;;;;;;25.07;37.25;101045.50;4130181;28;20017;-68
2024/04/07 05:02:15;;;;;;;;;;;;;;;25.08;37.23;101047.19;4130375;28;20422;-68
2024/04/07 05:04:16;;;;;;;;;;;;;;;25.08;37.47;101039.13;4130483;28;19930;-67
2024/04/07 05:06:18;;;;;;;;;;;;;;;25.09;37.54;101043.50;4130265;28;20411;-68
2024/04/07 05:08:19;;;;;;;;;;;;;;;25.10;37.40;101060.50;4130410;28;19926;-68
2024/04/07 05:10:20;;;;;;;;;;;;;;;25.09;37.15;101051.56;4129863;28;20012;-68
2024/04/07 05:12:21;;;;;;;;;;;;;;;25.09;37.24;101054.25;4162357;28;19925;-68
2024/04/07 05:14:22;;;;;;;;;;;;;;;25.07;37.33;101053.56;4130316;28;20326;-68
2024/04/07 05:16:22;;;;;;;;;;;;;;;25.06;37.15;101059.94;4130110;28;19926;-69
2024/04/07 05:18:23;;;;;;;;;;;;;;;25.04;37.32;101057.41;4130106;28;19934;-67
2024/04/07 05:20:24;;;;;;;;;;;;;;;25.02;37.35;101059.38;4129880;28;19925;-67
2024/04/07 05:22:24;;;;;;;;;;;;;;;25.01;37.32;101057.66;4135365;28;19940;-68
2024/04/07 05:24:28;;;;;;;;;;;;;;;25.01;37.34;101059.53;4145909;28;19932;-68
2024/04/07 05:26:29;;;;;;;;;;;;;;;25.02;37.53;101063.91;4146272;28;19929;-68
2024/04/07 05:28:29;;;;;;;;;;;;;;;25.01;37.35;101068.44;4146154;28;19932;-68
2024/04/07 05:30:30;;;;;;;;;;;;;;;25.03;37.37;101071.84;4146221;28;20016;-68
2024/04/07 05:32:30;;;;;;;;;;;;;;;25.04;37.64;101078.94;4146588;28;19933;-67
2024/04/07 05:34:31;;;;;;;;;;;;;;;25.06;37.60;101077.94;4149344;28;20053;-67
2024/04/07 05:36:32;;;;;;;;;;;;;;;25.07;37.33;101082.31;4149133;28;19960;-67
2024/04/07 05:38:35;;;;;;;;;;;;;;;25.07;37.35;101077.78;4149316;28;19926;-68
2024/04/07 05:40:36;;;;;;;;;;;;;;;25.05;37.41;101085.16;4149054;28;20405;-67
2024/04/07 05:42:36;;;;;;;;;;;;;;;25.06;37.45;101083.31;4148797;28;20008;-67
2024/04/07 05:44:39;;;;;;;;;;;;;;;25.04;37.26;101089.69;4148991;28;19976;-68
2024/04/07 05:46:39;;;;;;;;;;;;;;;25.04;37.54;101110.34;4149399;28;19948;-68
2024/04/07 05:48:40;;;;;;;;;;;;;;;25.02;37.39;101110.50;4148990;28;19926;-68
2024/04/07 05:50:40;;;;;;;;;;;;;;;25.01;37.51;101107.97;4149145;28;20426;-68
2024/04/07 05:52:41;;;;;;;;;;;;;;;25.00;37.38;101101.72;4148953;28;19991;-68
2024/04/07 05:54:42;;;;;;;;;;;;;;;24.99;37.69;101101.84;4149129;28;19983;-68
2024/04/07 05:56:42;;;;;;;;;;;;;;;24.98;37.70;101105.53;4148606;28;20315;-68
2024/04/07 05:58:43;;;;;;;;;;;;;;;24.98;37.65;101102.84;4148921;28;19929;-68
2024/04/07 06:00:44;;;;;;;;;;;;;;;24.97;37.32;101104.69;4148945;28;19925;-68
2024/04/07 06:02:44;;;;;;;;;;;;;;;24.98;37.40;101109.09;4148971;28;19925;-68
2024/04/07 06:04:45;;;;;;;;;;;;;;;25.00;37.31;101125.09;4149063;28;20041;-68
2024/04/07 06:06:47;;;;;;;;;;;;;;;25.00;37.48;101120.53;4148937;28;19929;-68
2024/04/07 06:08:48;;;;;;;;;;;;;;;25.01;37.40;101126.78;4148892;28;19932;-68
2024/04/07 06:10:48;;;;;;;;;;;;;;;25.01;37.53;101130.31;4148144;28;19926;-68
2024/04/07 06:12:49;;;;;;;;;;;;;;;25.00;37.45;101142.06;4148625;28;19936;-68
2024/04/07 06:14:50;;;;;;;;;;;;;;;25.01;37.26;101141.09;4148847;28;19972;-69
2024/04/07 06:16:50;;;;;;;;;;;;;;;25.00;37.43;101133.16;4148813;28;19926;-68
2024/04/07 06:18:51;;;;;;;;;;;;;;;24.99;37.48;101136.84;4148760;28;19952;-68
2024/04/07 06:20:53;;;;;;;;;;;;;;;24.97;37.38;101134.28;4148631;28;19926;-69
2024/04/07 06:22:54;;;;;;;;;;;;;;;24.97;37.38;101131.59;4148535;28;19926;-69
2024/04/07 06:24:55;;;;;;;;;;;;;;;24.95;37.42;101138.97;4148296;28;19932;-68
2024/04/07 06:26:56;;;;;;;;;;;;;;;24.95;37.44;101141.66;4148394;28;19933;-69
2024/04/07 06:28:56;;;;;;;;;;;;;;;24.95;37.51;101141.66;4148328;28;19925;-68
2024/04/07 06:30:57;;;;;;;;;;;;;;;24.95;37.46;101148.88;4148401;28;19925;-69
2024/04/07 06:32:58;;;;;;;;;;;;;;;24.94;37.60;101150.69;4148464;28;19933;-68
2024/04/07 06:34:58;;;;;;;;;;;;;;;24.97;37.73;101154.94;4148092;28;20326;-69
2024/04/07 06:36:59;;;;;;;;;;;;;;;24.97;37.50;101161.19;4148167;28;19925;-68
2024/04/07 06:39:00;;;;;;;;;;;;;;;24.97;37.26;101165.72;4148327;28;20016;-68
2024/04/07 06:41:00;;;;;;;;;;;;;;;24.98;37.45;101167.41;4148033;28;20406;-68
2024/04/07 06:43:01;;;;;;;;;;;;;;;24.98;37.41;101170.13;4148225;28;19925;-68
2024/04/07 06:45:01;;;;;;;;;;;;;;;24.98;37.64;101172.81;4147230;28;19925;-68
2024/04/07 06:47:09;;;;;;;;;;;;;;;24.97;37.77;101188.13;4148278;28;19929;-68
2024/04/07 06:49:09;;;;;;;;;;;;;;;24.98;37.25;101178.19;4147819;28;19929;-67
2024/04/07 06:51:10;;;;;;;;;;;;;;;24.97;37.51;101187.25;4147994;28;19925;-67
2024/04/07 06:53:10;;;;;;;;;;;;;;;24.95;37.33;101187.38;4147772;28;19926;-68
2024/04/07 06:55:11;;;;;;;;;;;;;;;24.94;37.62;101193.75;4147677;28;19932;-68
2024/04/07 06:57:13;;;;;;;;;;;;;;;24.92;37.72;101193.03;4147906;28;19926;-68
2024/04/07 06:59:13;;;;;;;;;;;;;;;24.91;37.65;101188.66;4148020;28;20303;-67
2024/04/07 07:01:14;;;;;;;;;;;;;;;24.90;37.50;101186.09;4147933;28;19925;-68
2024/04/07 07:03:15;;;;;;;;;;;;;;;24.91;37.41;101177.91;4147724;28;20020;-68
2024/04/07 07:05:16;;;;;;;;;;;;;;;24.92;37.49;101171.50;4147859;28;19993;-68
2024/04/07 07:07:17;;;;;;;;;;;;;;;24.94;37.40;101179.47;4148065;28;20468;-68
2024/04/07 07:09:18;;;;;;;;;;;;;;;24.93;37.33;101178.59;4147133;28;19944;-68
2024/04/07 07:11:18;;;;;;;;;;;;;;;24.94;37.54;101177.59;4147787;28;20016;-67
2024/04/07 07:13:19;;;;;;;;;;;;;;;24.95;37.42;101187.38;4147718;28;20279;-68
2024/04/07 07:15:19;;;;;;;;;;;;;;;24.96;37.47;101190.91;4147643;28;20021;-68
2024/04/07 07:17:20;;;;;;;;;;;;;;;24.95;37.44;101183.84;4147574;28;20379;-68
2024/04/07 07:19:21;;;;;;;;;;;;;;;24.93;37.33;101181.28;4147620;28;19953;-68
2024/04/07 07:21:22;;;;;;;;;;;;;;;24.94;37.35;101180.31;4147430;28;19930;-67
2024/04/07 07:23:23;;;;;;;;;;;;;;;24.92;37.34;101184.97;4147230;28;19925;-67
2024/04/07 07:25:23;;;;;;;;;;;;;;;24.92;37.34;101187.66;4147461;28;20016;-68
2024/04/07 07:27:24;;;;;;;;;;;;;;;24.91;37.40;101194.03;4147525;28;19926;-68
2024/04/07 07:29:24;;;;;;;;;;;;;;;24.88;37.38;101195.16;4147669;28;19960;-67
2024/04/07 07:31:27;;;;;;;;;;;;;;;24.87;37.42;101206.91;4147287;28;20284;-67
2024/04/07 07:33:28;;;;;;;;;;;;;;;24.87;37.69;101204.22;4147558;28;19975;-68
2024/04/07 07:35:29;;;;;;;;;;;;;;;24.87;37.41;101209.59;4147578;28;19929;-67
2024/04/07 07:37:29;;;;;;;;;;;;;;;24.88;37.26;101202.38;4147020;28;19937;-68
2024/04/07 07:39:30;;;;;;;;;;;;;;;24.87;37.68;101200.66;4147260;28;20418;-68
2024/04/07 07:41:33;;;;;;;;;;;;;;;24.88;37.43;101203.22;4147497;28;19929;-68
2024/04/07 07:43:34;;;;;;;;;;;;;;;24.89;37.35;101198.69;4147466;28;19925;-67
2024/04/07 07:45:34;;;;;;;;;;;;;;;24.89;37.43;101209.47;4147282;28;19925;-67
2024/04/07 07:47:35;;;;;;;;;;;;;;;24.90;37.58;101213.00;4147039;28;20024;-68
2024/04/07 07:49:36;;;;;;;;;;;;;;;24.90;37.25;101208.47;4147225;28;19949;-68
2024/04/07 07:51:36;;;;;;;;;;;;;;;24.89;37.46;101204.09;4146939;28;19930;-67
2024/04/07 07:53:38;;;;;;;;;;;;;;;24.89;37.35;101201.38;4147190;28;20318;-68
2024/04/07 07:55:38;;;;;;;;;;;;;;;24.88;37.25;101194.31;4147099;28;19925;-67
2024/04/07 07:57:39;;;;;;;;;;;;;;;24.86;37.68;101204.34;4147208;28;19964;-67
2024/04/07 07:59:40;;;;;;;;;;;;;;;24.85;37.32;101195.44;4147127;28;19972;-67
2024/04/07 08:01:40;;;;;;;;;;;;;;;24.84;37.54;101201.78;4146924;28;20391;-67
2024/04/07 08:03:41;;;;;;;;;;;;;;;24.84;37.35;101200.97;4147277;28;19933;-67
2024/04/07 08:05:41;;;;;;;;;;;;;;;24.84;37.43;101198.28;4147082;28;19933;-67
2024/04/07 08:07:42;;;;;;;;;;;;;;;24.84;37.42;101193.72;4146920;28;20020;-67
2024/04/07 08:09:42;;;;;;;;;;;;;;;24.85;37.52;101192.75;4146814;28;20028;-67
2024/04/07 08:11:43;;;;;;;;;;;;;;;24.86;37.45;101190.88;4147097;28;20033;-67
2024/04/07 08:13:44;;;;;;;;;;;;;;;24.88;37.39;101194.31;4147033;28;20307;-66
2024/04/07 08:15:44;;;;;;;;;;;;;;;24.90;37.58;101207.63;4147204;28;19925;-68
2024/04/07 08:17:45;;;;;;;;;;;;;;;24.90;37.38;101213.00;4146844;28;19932;-68
2024/04/07 08:19:46;;;;;;;;;;;;;;;24.88;37.29;101211.28;4147101;28;19937;-67
2024/04/07 08:21:46;;;;;;;;;;;;;;;24.89;37.42;101209.47;4146581;28;19929;-67
2024/04/07 08:23:47;;;;;;;;;;;;;;;24.90;37.30;101216.56;4114550;28;19969;-67
2024/04/07 08:25:48;;;;;;;;;;;;;;;24.89;37.32;101214.84;4130832;28;20292;-67
2024/04/07 08:27:48;;;;;;;;;;;;;;;24.88;37.37;101213.13;4130589;28;19976;-67
2024/04/07 08:29:49;;;;;;;;;;;;;;;24.87;37.42;101212.31;4146785;28;19926;-67
2024/04/07 08:31:50;;;;;;;;;;;;;;;24.86;37.36;101215.97;4130598;28;19988;-67
2024/04/07 08:33:50;;;;;;;;;;;;;;;24.85;37.72;101214.25;4130645;28;19932;-67
2024/04/07 08:35:51;;;;;;;;;;;;;;;24.85;37.46;101218.81;4114274;28;20343;-67
2024/04/07 08:37:52;;;;;;;;;;;;;;;24.85;37.37;101213.44;4130700;28;19937;-67
2024/04/07 08:39:53;;;;;;;;;;;;;;;24.86;37.32;101220.47;4130692;28;19926;-67
2024/04/07 08:41:55;;;;;;;;;;;;;;;24.85;37.70;101222.34;4146866;28;20280;-68
2024/04/07 08:43:56;;;;;;;;;;;;;;;24.87;37.41;101222.19;4130644;28;20378;-68
2024/04/07 08:45:57;;;;;;;;;;;;;;;24.87;37.39;101217.69;4146801;28;20012;-68
2024/04/07 08:47:59;;;;;;;;;;;;;;;24.89;37.30;101222.91;4130460;28;19926;-70
2024/04/07 08:50:00;;;;;;;;;;;;;;;24.90;37.54;101232.69;4130189;28;19948;-68
2024/04/07 08:52:01;;;;;;;;;;;;;;;24.90;37.65;101232.69;4130479;28;19929;-67
2024/04/07 08:54:02;;;;;;;;;;;;;;;24.90;37.41;101224.63;4146802;28;20383;-67
2024/04/07 08:56:03;;;;;;;;;;;;;;;24.89;37.37;101222.91;4130532;28;19926;-68
2024/04/07 08:58:04;;;;;;;;;;;;;;;24.89;37.51;101220.22;4130265;28;19933;-67
2024/04/07 09:00:06;;;;;;;;;;;;;;;24.87;37.33;101220.38;4130444;28;19932;-68
2024/04/07 09:02:08;;;;;;;;;;;;;;;24.88;37.39;101229.28;4130532;28;19929;-68
2024/04/07 09:04:09;;;;;;;;;;;;;;;24.86;37.46;101232.13;4130157;28;20383;-68
2024/04/07 09:06:09;;;;;;;;;;;;;;;24.87;37.73;101227.56;4114340;28;19927;-68
2024/04/07 09:08:10;;;;;;;;;;;;;;;24.86;37.44;101221.34;4131923;28;19926;-68
2024/04/07 09:10:11;;;;;;;;;;;;;;;24.86;37.30;101229.41;4133447;28;20366;-67
2024/04/07 09:12:12;;;;;;;;;;;;;;;24.87;37.58;101228.44;4133565;28;19988;-67
2024/04/07 09:14:12;;;;;;;;;;;;;;;24.89;37.47;101222.91;4117412;28;19926;-67
2024/04/07 09:16:13;;;;;;;;;;;;;;;24.90;37.22;101221.06;4133461;28;19973;-68
2024/04/07 09:18:14;;;;;;;;;;;;;;;24.92;37.27;101224.47;4133466;28;19933;-66
2024/04/07 09:20:23;;;;;;;;;;;;;;;24.92;37.21;101221.78;4132895;28;19926;-68
2024/04/07 09:22:25;;;;;;;;;;;;;;;24.92;37.24;101219.94;4138676;28;19929;-66
2024/04/07 09:24:26;;;;;;;;;;;;;;;24.92;37.58;101213.72;4133241;28;19976;-66
2024/04/07 09:26:26;;;;;;;;;;;;;;;24.93;37.24;101212.72;4133210;28;19929;-68
2024/04/07 09:28:27;;;;;;;;;;;;;;;24.92;37.19;101208.34;4133242;28;19926;-67
2024/04/07 09:30:30;;;;;;;;;;;;;;;24.92;37.57;101213.72;4133150;28;19930;-67
2024/04/07 09:32:31;;;;;;;;;;;;;;;24.91;37.33;101215.56;4132964;28;19936;-67
2024/04/07 09:34:35;;;;;;;;;;;;;;;24.90;37.24;101211.16;4132921;28;19926;-66
2024/04/07 09:36:36;;;;;;;;;;;;;;;24.91;37.41;101206.63;4133407;28;20456;-67
2024/04/07 09:38:39;;;;;;;;;;;;;;;24.90;37.34;101204.91;4117341;28;19933;-68
2024/04/07 09:40:45;;;;;;;;;;;;;;;24.89;36.96;101196.00;4133137;28;19925;-68
2024/04/07 09:42:48;;;;;;;;;;;;;;;24.90;37.16;101199.53;4133272;28;19926;-67
2024/04/07 09:44:51;;;;;;;;;;;;;;;24.90;36.95;101200.41;4132844;28;19945;-69
2024/04/07 09:46:57;;;;;;;;;;;;;;;24.91;37.08;101193.19;4133202;28;19926;-67
2024/04/07 09:49:09;;;;;;;;;;;;;;;24.92;37.00;101187.66;4132700;28;20020;-69
2024/04/07 09:51:14;;;;;;;;;;;;;;;24.93;36.92;101189.34;4133048;28;19926;-71
2024/04/07 09:53:20;;;;;;;;;;;;;;;24.94;36.79;101191.06;4132890;28;19992;-67
2024/04/07 09:55:22;;;;;;;;;;;;;;;24.95;36.77;101189.25;4132448;28;19952;-70
2024/04/07 09:57:23;;;;;;;;;;;;;;;24.94;37.02;101199.13;4132826;28;19996;-70
2024/04/07 09:59:25;;;;;;;;;;;;;;;24.94;36.62;101201.81;4131797;28;19926;-69
2024/04/07 10:01:26;;;;;;;;;;;;;;;24.94;36.52;101195.59;4132920;28;19926;-68
2024/04/07 10:03:26;;;;;;;;;;;;;;;24.94;36.52;101187.53;4132275;28;20020;-67
2024/04/07 10:05:27;;;;;;;;;;;;;;;24.93;36.40;101192.03;4116661;28;19989;-66
2024/04/07 10:07:28;;;;;;;;;;;;;;;24.91;36.40;101190.47;4136475;28;19926;-65
2024/04/07 10:09:29;;;;;;;;;;;;;;;24.91;36.70;101185.09;4148131;28;19926;-61
2024/04/07 10:11:30;;;;;;;;;;;;;;;24.90;36.49;101194.16;4145773;28;19926;-65
2024/04/07 10:13:32;;;;;;;;;;;;;;;24.88;36.44;101188.91;4147732;28;19932;-65
2024/04/07 10:15:32;;;;;;;;;;;;;;;24.85;36.63;101179.28;4147535;28;19926;-66
2024/04/07 10:17:33;;;;;;;;;;;;;;;24.86;36.52;101182.81;4147645;28;19926;-65
2024/04/07 10:19:34;;;;;;;;;;;;;;;24.88;36.46;101178.16;4146711;28;19929;-64
2024/04/07 10:21:34;;;;;;;;;;;;;;;24.89;36.53;101179.88;4148090;28;20460;-64
2024/04/07 10:23:36;;;;;;;;;;;;;;;24.90;36.53;101168.13;4148028;28;19926;-65
2024/04/07 10:25:36;;;;;;;;;;;;;;;24.92;36.59;101173.34;4148213;28;19929;-66